createdAt,value
2018-07-28T02:33:20.562Z,13.75
2018-07-28T02:36:15.354Z,12.07
2018-07-28T02:39:00.668Z,11.68
2018-07-28T02:41:41.621Z,14.68
2018-07-28T02:44:26.961Z,14.65
2018-07-28T02:46:58.278Z,12.73
2018-07-28T02:49:28.708Z,13.53
2018-07-28T02:51:59.118Z,14.13
2018-07-28T02:54:38.141Z,17.45
2018-07-28T02:57:27.224Z,14.35
2018-07-28T03:00:18.410Z,15.72
2018-07-28T03:03:06.427Z,12.73
2018-07-28T03:05:37.270Z,14.95
2018-07-28T03:08:08.349Z,14.40
2018-07-28T03:10:38.846Z,16.73
2018-07-28T03:13:09.296Z,15.65
2018-07-28T03:15:39.732Z,14.90
2018-07-28T03:18:10.206Z,14.65
2018-07-28T03:20:40.692Z,15.78
2018-07-28T03:23:11.113Z,15.43
2018-07-28T03:25:41.583Z,14.13
2018-07-28T03:28:12.046Z,14.53
2018-07-28T03:30:42.556Z,13.93
2018-07-28T03:33:13.017Z,16.60
2018-07-28T03:35:43.441Z,16.00
2018-07-28T03:38:13.759Z,15.50
2018-07-28T03:40:44.118Z,15.60
2018-07-28T03:43:14.539Z,22.95
2018-07-28T03:45:44.949Z,20.92
2018-07-28T03:48:15.309Z,17.73
2018-07-28T03:50:45.651Z,17.60
2018-07-28T03:53:16.158Z,16.52
2018-07-28T03:55:46.561Z,16.67
2018-07-28T03:58:16.907Z,15.25
2018-07-28T04:00:47.281Z,17.15
2018-07-28T04:03:17.732Z,24.92
2018-07-28T04:05:48.142Z,19.75
2018-07-28T04:08:18.507Z,17.27
2018-07-28T04:10:48.900Z,17.75
2018-07-28T04:13:19.325Z,15.55
2018-07-28T04:15:49.745Z,15.13
2018-07-28T04:18:20.203Z,16.25
2018-07-28T04:20:50.672Z,16.20
2018-07-28T04:23:21.157Z,21.75
2018-07-28T04:25:51.708Z,15.63
2018-07-28T04:28:22.193Z,23.05
2018-07-28T04:30:52.583Z,16.17
2018-07-28T04:33:22.966Z,16.93
2018-07-28T04:35:53.325Z,17.50
2018-07-28T04:38:23.743Z,15.55
2018-07-28T04:40:54.170Z,22.65
2018-07-28T04:43:24.853Z,19.95
2018-07-28T04:45:55.360Z,18.37
2018-07-28T04:48:25.894Z,15.18
2018-07-28T04:50:56.206Z,17.42
2018-07-28T04:53:26.918Z,18.55
2018-07-28T04:55:57.366Z,16.25
2018-07-28T04:58:34.813Z,14.65
2018-07-28T05:01:05.292Z,15.45
2018-07-28T05:03:35.712Z,16.32
2018-07-28T05:06:06.129Z,17.05
2018-07-28T05:09:20.445Z,18.37
2018-07-28T05:15:35.019Z,18.60
2018-07-28T05:18:34.134Z,19.77
2018-07-28T06:11:00.581Z,13.48
2018-07-28T06:14:06.916Z,15.87
2018-07-28T06:16:41.348Z,11.53
2018-07-28T06:19:13.130Z,16.87
2018-07-28T06:21:44.168Z,11.30
2018-07-28T06:24:18.538Z,14.00
2018-07-28T06:26:51.930Z,11.93
2018-07-28T06:29:24.617Z,10.90
2018-07-28T06:31:56.839Z,10.73
2018-07-28T06:34:34.323Z,11.50
2018-07-28T06:37:11.463Z,11.63
2018-07-28T06:39:46.580Z,10.30
2018-07-28T06:48:33.591Z,13.97
2018-07-28T06:51:04.102Z,7.97
2018-07-28T06:53:35.011Z,9.77
2018-07-28T06:56:05.739Z,9.43
2018-07-28T06:58:36.077Z,12.87
2018-07-28T07:01:06.867Z,10.50
2018-07-28T07:03:43.972Z,10.73
2018-07-28T07:06:15.168Z,12.00
2018-07-28T07:08:46.128Z,9.40
2018-07-28T07:11:18.466Z,10.53
2018-07-28T07:13:55.111Z,10.93
2018-07-28T07:16:40.849Z,10.47
2018-07-28T07:19:24.677Z,10.50
2018-07-28T07:21:59.172Z,8.50
2018-07-28T07:24:30.207Z,12.70
2018-07-28T07:27:01.013Z,12.67
2018-07-28T07:29:48.161Z,12.00
2018-07-28T07:32:19.055Z,11.60
2018-07-28T07:35:00.272Z,10.68
2018-07-28T07:37:31.140Z,13.00
2018-07-28T07:40:01.644Z,9.40
2018-07-28T07:42:32.011Z,15.20
2018-07-28T07:45:14.484Z,10.70
2018-07-28T07:47:44.715Z,10.47
2018-07-28T07:50:14.946Z,9.65
2018-07-28T07:52:45.600Z,10.67
2018-07-28T07:55:16.059Z,10.60
2018-07-28T07:57:46.512Z,10.53
2018-07-28T08:00:17.083Z,11.47
2018-07-28T08:02:47.953Z,8.10
2018-07-28T08:05:18.424Z,11.10
2018-07-28T08:07:48.972Z,9.97
2018-07-28T08:10:19.424Z,8.63
2018-07-28T08:15:45.692Z,8.20
2018-07-28T08:18:16.282Z,9.38
2018-07-28T08:20:46.792Z,10.57
2018-07-28T08:23:17.286Z,10.65
2018-07-28T08:25:54.042Z,9.43
2018-07-28T08:28:32.476Z,8.45
2018-07-28T08:31:02.848Z,12.07
2018-07-28T08:33:33.276Z,11.65
2018-07-28T08:36:03.847Z,11.07
2018-07-28T08:38:34.549Z,15.85
2018-07-28T08:41:05.016Z,13.20
2018-07-28T08:43:35.622Z,14.45
2018-07-28T08:46:06.690Z,10.30
2018-07-28T08:48:37.458Z,10.20
2018-07-28T08:51:07.823Z,11.03
2018-07-28T08:53:38.407Z,12.00
2018-07-28T08:56:08.857Z,11.93
2018-07-28T08:58:39.782Z,17.55
2018-07-28T09:01:10.110Z,18.43
2018-07-28T09:06:58.426Z,12.93
2018-07-28T09:09:43.203Z,8.75
2018-07-28T09:12:22.382Z,15.70
2018-07-28T09:15:08.279Z,14.50
2018-07-28T09:17:40.789Z,10.03
2018-07-28T09:20:40.404Z,9.43
2018-07-28T09:28:57.207Z,8.37
2018-07-28T09:31:35.541Z,10.58
2018-07-28T09:34:23.053Z,13.40
2018-07-28T09:37:18.988Z,11.33
2018-07-28T09:45:33.945Z,11.17
2018-07-28T09:48:24.628Z,10.07
2018-07-28T09:51:15.552Z,10.75
2018-07-28T09:53:58.932Z,13.30
2018-07-28T09:56:52.238Z,13.27
2018-07-28T10:03:00.510Z,9.00
2018-07-28T10:05:31.597Z,9.20
2018-07-28T10:09:12.637Z,9.83
2018-07-28T10:11:45.579Z,8.17
2018-07-28T10:14:34.888Z,9.53
2018-07-28T10:17:06.609Z,10.53
2018-07-28T10:19:43.631Z,8.03
2018-07-28T10:22:14.668Z,9.20
2018-07-28T10:24:45.843Z,12.17
2018-07-28T10:27:26.556Z,10.60
2018-07-28T10:29:57.625Z,8.33
2018-07-28T10:32:44.661Z,8.43
2018-07-28T10:35:15.407Z,7.43
2018-07-28T10:37:46.389Z,7.60
2018-07-28T10:40:17.052Z,7.60
2018-07-28T10:42:52.022Z,7.87
2018-07-28T10:45:23.717Z,7.13
2018-07-28T10:47:54.305Z,7.50
2018-07-28T10:50:24.934Z,7.63
2018-07-28T10:53:18.230Z,6.93
2018-07-28T10:55:57.105Z,13.87
2018-07-28T10:58:27.745Z,6.47
2018-07-28T11:00:58.375Z,6.20
2018-07-28T11:03:28.989Z,6.10
2018-07-28T11:05:59.451Z,5.90
2018-07-28T11:08:31.279Z,8.80
2018-07-28T11:11:01.930Z,6.50
2018-07-28T11:13:32.241Z,6.00
2018-07-28T11:16:02.898Z,7.60
2018-07-28T11:18:33.349Z,11.63
2018-07-28T11:21:03.785Z,8.23
2018-07-28T11:23:56.389Z,7.53
2018-07-28T11:26:26.804Z,7.63
2018-07-28T11:28:57.195Z,6.93
2018-07-28T11:31:44.719Z,7.90
2018-07-28T11:34:32.409Z,8.27
2018-07-28T11:37:22.726Z,9.40
2018-07-28T11:40:10.340Z,11.73
2018-07-28T11:42:57.726Z,7.70
2018-07-28T11:45:32.402Z,9.10
2018-07-28T11:48:04.040Z,9.70
2018-07-28T11:50:36.959Z,10.53
2018-07-28T11:53:08.259Z,9.40
2018-07-28T11:55:38.788Z,7.60
2018-07-28T11:58:09.275Z,12.37
2018-07-28T12:00:39.685Z,16.37
2018-07-28T12:03:10.038Z,30.23
2018-07-28T12:05:40.473Z,11.30
2018-07-28T12:08:10.905Z,9.37
2018-07-28T12:10:41.267Z,8.17
2018-07-28T12:13:11.725Z,7.50
2018-07-28T12:15:42.197Z,7.27
2018-07-28T12:18:15.561Z,7.03
2018-07-28T12:23:43.161Z,6.13
2018-07-28T12:26:13.567Z,7.10
2018-07-28T12:28:44.011Z,11.30
2018-07-28T12:31:14.409Z,8.80
2018-07-28T12:33:44.856Z,8.93
2018-07-28T12:36:17.412Z,7.63
2018-07-28T12:38:47.852Z,7.10
2018-07-28T12:41:18.267Z,7.03
2018-07-28T12:43:48.815Z,6.80
2018-07-28T12:46:19.195Z,6.47
2018-07-28T12:48:49.567Z,7.07
2018-07-28T12:51:20.040Z,7.43
2018-07-28T12:53:50.416Z,8.00
2018-07-28T12:56:36.880Z,22.57
2018-07-28T12:59:07.319Z,17.60
2018-07-28T13:01:38.127Z,9.13
2018-07-28T13:04:09.080Z,10.20
2018-07-28T13:06:40.580Z,16.13
2018-07-28T13:09:12.964Z,11.43
2018-07-28T13:11:43.489Z,12.33
2018-07-28T13:14:14.022Z,12.35
2018-07-28T13:16:45.633Z,12.43
2018-07-28T13:19:33.283Z,14.30
2018-07-28T13:22:03.921Z,13.43
2018-07-28T13:24:34.444Z,22.13
2018-07-28T13:27:04.587Z,13.13
2018-07-28T13:29:40.036Z,11.38
2018-07-28T13:32:11.940Z,18.90
2018-07-28T13:34:52.700Z,16.25
2018-07-28T13:37:25.351Z,12.55
2018-07-28T13:39:58.210Z,12.78
2018-07-28T13:42:29.834Z,11.95
2018-07-28T13:45:05.396Z,10.70
2018-07-28T13:47:36.485Z,14.23
2018-07-28T13:50:08.960Z,10.98
2018-07-28T13:52:39.786Z,11.80
2018-07-28T13:55:11.735Z,11.97
2018-07-28T13:57:41.877Z,14.98
2018-07-28T14:00:12.491Z,9.73
2018-07-28T14:02:42.928Z,10.85
2018-07-28T14:05:13.425Z,11.75
2018-07-28T14:07:44.003Z,11.90
2018-07-28T14:10:14.424Z,10.20
2018-07-28T14:12:44.860Z,10.70
2018-07-28T14:15:15.438Z,11.68
2018-07-28T14:17:45.931Z,14.63
2018-07-28T14:20:16.436Z,10.07
2018-07-28T14:22:47.003Z,9.23
2018-07-28T14:25:23.604Z,12.50
2018-07-28T14:27:59.591Z,11.47
2018-07-28T14:30:30.357Z,10.40
2018-07-28T14:33:01.135Z,9.83
2018-07-28T14:35:31.951Z,10.53
2018-07-28T14:38:03.493Z,10.90
2018-07-28T14:40:34.140Z,10.37
2018-07-28T14:43:16.076Z,17.33
2018-07-28T14:45:46.615Z,15.57
2018-07-28T14:48:17.040Z,8.73
2018-07-28T14:50:47.869Z,9.27
2018-07-28T14:53:18.836Z,13.10
2018-07-28T14:58:35.992Z,14.65
2018-07-28T15:04:21.922Z,10.15
2018-07-28T15:06:52.508Z,17.03
2018-07-28T15:09:23.134Z,10.80
2018-07-28T15:11:53.587Z,9.47
2018-07-28T15:14:24.123Z,8.43
2018-07-28T15:16:54.619Z,9.60
2018-07-28T15:19:49.752Z,10.03
2018-07-28T15:22:20.608Z,8.93
2018-07-28T15:24:51.248Z,9.30
2018-07-28T15:44:52.905Z,12.47
2018-07-28T15:47:23.287Z,8.80
2018-07-28T15:49:53.658Z,9.13
2018-07-28T16:02:26.673Z,8.85
2018-07-28T16:04:57.386Z,8.50
2018-07-28T16:07:28.347Z,9.00
2018-07-28T16:09:58.954Z,8.90
2018-07-28T16:12:29.887Z,9.10
2018-07-28T16:17:35.647Z,10.20
2018-07-28T16:20:06.459Z,11.60
2018-07-28T16:22:37.262Z,11.97
2018-07-28T16:25:07.920Z,10.47
2018-07-28T16:27:38.512Z,9.80
2018-07-28T16:35:09.633Z,10.10
2018-07-28T16:37:40.607Z,10.70
2018-07-28T16:40:11.334Z,12.30
2018-07-28T16:45:11.592Z,11.40
2018-07-28T16:47:42.335Z,11.60
2018-07-28T16:50:12.791Z,11.40
2018-07-28T16:55:12.823Z,17.10
2018-07-28T16:57:43.351Z,20.10
2018-07-28T17:00:13.804Z,13.37
2018-07-28T17:02:46.532Z,15.43
2018-07-28T17:05:20.050Z,10.90
2018-07-28T17:08:03.672Z,11.60
2018-07-28T17:10:34.068Z,10.50
2018-07-28T17:15:34.366Z,11.25
2018-07-28T17:18:04.673Z,9.70
2018-07-28T17:20:35.011Z,28.55
2018-07-28T17:23:05.522Z,20.30
2018-07-28T17:25:35.946Z,13.90
2018-07-28T17:28:07.092Z,25.50
2018-07-28T17:30:37.517Z,16.05
2018-07-28T17:33:07.789Z,22.35
2018-07-28T17:35:38.341Z,18.30
2018-07-28T17:38:09.085Z,16.70
2018-07-28T17:40:47.401Z,14.47
2018-07-28T17:43:18.264Z,13.73
2018-07-28T17:45:49.243Z,14.80
2018-07-28T17:48:22.497Z,12.90
2018-07-28T17:51:06.230Z,17.70
2018-07-28T17:53:40.398Z,11.80
2018-07-28T17:56:11.477Z,10.40
2018-07-28T17:58:49.638Z,11.30
2018-07-28T18:01:37.615Z,11.00
2018-07-28T18:04:08.873Z,12.60
2018-07-28T18:06:39.553Z,10.05
2018-07-28T18:09:11.330Z,9.55
2018-07-28T18:11:41.931Z,9.57
2018-07-28T18:14:14.342Z,10.00
2018-07-28T18:16:45.026Z,9.80
2018-07-28T18:19:15.407Z,8.47
2018-07-28T18:24:15.514Z,10.75
2018-07-28T18:34:33.875Z,12.40
2018-07-28T18:37:10.319Z,10.30
2018-07-28T18:39:49.632Z,10.43
2018-07-28T18:42:27.917Z,11.57
2018-07-28T18:45:03.257Z,10.80
2018-07-28T18:47:35.323Z,10.25
2018-07-28T18:50:06.433Z,10.75
2018-07-28T18:52:36.795Z,11.93
2018-07-28T18:55:07.825Z,13.72
2018-07-28T18:57:38.038Z,13.50
2018-07-28T19:00:09.724Z,9.45
2018-07-28T19:02:44.503Z,10.50
2018-07-28T19:05:14.992Z,9.95
2018-07-28T19:08:03.433Z,10.45
2018-07-28T19:11:06.048Z,14.80
2018-07-28T19:45:33.508Z,12.55
2018-07-28T19:48:30.068Z,11.08
2018-07-28T19:51:03.571Z,12.37
2018-07-28T19:53:33.933Z,11.80
2018-07-28T19:56:05.272Z,16.50
2018-07-28T19:58:35.735Z,11.28
2018-07-28T20:01:06.366Z,12.40
2018-07-28T20:03:52.203Z,15.53
2018-07-28T20:06:22.938Z,11.48
2018-07-28T20:08:53.452Z,11.03
2018-07-28T20:11:23.948Z,12.70
2018-07-28T20:13:54.360Z,10.75
2018-07-28T20:16:24.811Z,11.90
2018-07-28T20:18:55.434Z,11.30
2018-07-28T20:21:25.943Z,10.53
2018-07-28T20:23:56.310Z,10.78
2018-07-28T20:26:26.771Z,12.60
2018-07-28T20:28:57.233Z,10.50
2018-07-28T20:31:27.615Z,11.45
2018-07-28T20:33:58.007Z,10.90
2018-07-28T20:36:28.387Z,12.30
2018-07-28T20:38:58.928Z,11.35
2018-07-28T20:41:29.368Z,11.90
2018-07-28T20:44:08.913Z,12.50
2018-07-28T20:46:39.851Z,12.13
2018-07-28T20:49:10.258Z,11.22
2018-07-28T20:51:41.079Z,12.20
2018-07-28T20:54:14.832Z,11.60
2018-07-28T20:56:45.132Z,12.58
2018-07-28T20:59:15.362Z,14.15
2018-07-28T21:01:45.713Z,11.43
2018-07-28T21:04:16.275Z,12.23
2018-07-28T21:06:46.665Z,10.68
2018-07-28T21:09:17.452Z,11.80
2018-07-28T21:11:50.466Z,11.15
2018-07-28T21:14:49.047Z,11.33
2018-07-28T21:17:25.456Z,11.33
2018-07-28T21:19:57.056Z,12.73
2018-07-28T21:22:27.599Z,12.65
2018-07-28T21:24:58.324Z,11.78
2018-07-28T21:27:29.271Z,13.53
2018-07-28T21:29:59.774Z,13.60
2018-07-28T21:32:30.091Z,11.85
2018-07-28T21:35:00.729Z,12.58
2018-07-28T21:37:35.381Z,16.37
2018-07-28T21:40:07.057Z,12.93
2018-07-28T21:42:37.427Z,11.85
2018-07-28T21:45:07.934Z,11.73
2018-07-28T21:47:38.281Z,11.85
2018-07-28T21:50:09.554Z,13.95
2018-07-28T21:52:40.211Z,11.93
2018-07-28T21:55:10.901Z,12.18
2018-07-28T21:57:41.656Z,13.62
2018-07-28T22:00:12.187Z,14.05
2018-07-28T22:02:42.688Z,12.63
2018-07-28T22:05:13.309Z,12.25
2018-07-28T22:07:56.787Z,12.68
2018-07-28T22:10:30.715Z,14.15
2018-07-28T22:13:01.170Z,14.80
2018-07-28T22:15:31.822Z,12.20
2018-07-28T22:18:02.570Z,12.45
2018-07-28T22:20:33.054Z,11.60
2018-07-28T22:23:03.321Z,10.95
2018-07-28T22:25:33.441Z,11.28
2018-07-28T22:28:04.011Z,11.50
2018-07-28T22:30:34.751Z,12.25
2018-07-28T22:33:05.504Z,12.28
2018-07-28T22:35:36.084Z,10.63
2018-07-28T22:38:06.857Z,11.40
2018-07-28T22:40:37.848Z,12.45
2018-07-28T22:43:08.749Z,10.93
2018-07-28T22:45:39.302Z,12.93
2018-07-28T22:48:09.836Z,10.03
2018-07-28T22:50:40.470Z,12.73
2018-07-28T22:53:11.443Z,9.93
2018-07-28T22:55:42.139Z,10.75
2018-07-28T22:58:12.866Z,11.30
2018-07-28T23:00:55.319Z,9.70
2018-07-28T23:03:36.297Z,9.93
2018-07-28T23:06:07.010Z,9.10
2018-07-28T23:08:37.755Z,8.25
2018-07-28T23:14:13.378Z,7.42
2018-07-28T23:16:43.873Z,9.68
2018-07-28T23:19:14.321Z,9.08
2018-07-28T23:21:44.855Z,8.78
2018-07-28T23:24:15.143Z,9.53
2018-07-28T23:26:45.556Z,9.80
2018-07-28T23:29:15.897Z,10.82
2018-07-28T23:31:46.321Z,8.98
2018-07-28T23:34:16.833Z,8.98
2018-07-28T23:36:47.441Z,10.28
2018-07-28T23:39:17.986Z,9.20
2018-07-28T23:41:48.319Z,11.10
2018-07-28T23:44:18.770Z,8.85
2018-07-28T23:46:49.375Z,7.78
2018-07-28T23:49:20.823Z,9.15
2018-07-28T23:51:51.480Z,8.85
2018-07-28T23:54:22.223Z,11.45
2018-07-28T23:57:04.267Z,9.83
2018-07-28T23:59:35.178Z,9.33
